Home > Products > Valid Products > TAF

000
FTUS41 KRNK 271829 AAA
TAFLWB
TAF AMD
KLWB 271829Z 2718/2818 VRB03KT P6SM BKN040
     FM280400 00000KT P6SM SCT040
     FM280600 00000KT 1/4SM FG VV001
     FM281330 VRB03KT P6SM BKN030=



000
FTUS41 KRNK 271829 AAA
TAFLWB
TAF AMD
KLWB 271829Z 2718/2818 VRB03KT P6SM BKN040
     FM280400 00000KT P6SM SCT040
     FM280600 00000KT 1/4SM FG VV001
     FM281330 VRB03KT P6SM BKN030=



000
FTUS41 KRNK 271829 AAA
TAFLWB
TAF AMD
KLWB 271829Z 2718/2818 VRB03KT P6SM BKN040
     FM280400 00000KT P6SM SCT040
     FM280600 00000KT 1/4SM FG VV001
     FM281330 VRB03KT P6SM BKN030=



000
FTUS41 KRNK 271829 AAA
TAFLWB
TAF AMD
KLWB 271829Z 2718/2818 VRB03KT P6SM BKN040
     FM280400 00000KT P6SM SCT040
     FM280600 00000KT 1/4SM FG VV001
     FM281330 VRB03KT P6SM BKN030=



000
FTUS41 KRNK 271731
TAFLWB
TAF
KLWB 271731Z 2718/2818 VRB03KT P6SM BKN030
     FM280400 00000KT P6SM SCT030
     FM280600 00000KT 1/4SM FG VV001
     FM281330 VRB03KT P6SM BKN030=



000
FTUS41 KRNK 271731
TAFLWB
TAF
KLWB 271731Z 2718/2818 VRB03KT P6SM BKN030
     FM280400 00000KT P6SM SCT030
     FM280600 00000KT 1/4SM FG VV001
     FM281330 VRB03KT P6SM BKN030=



000
FTUS41 KRNK 271731
TAFDAN
TAF
KDAN 271731Z 2718/2818 05006KT P6SM SCT040
     FM280200 VRB03KT P6SM SCT060
     FM281400 09005KT P6SM SCT040=



000
FTUS41 KRNK 271731
TAFROA
TAF
KROA 271731Z 2718/2818 VRB04KT P6SM BKN040
     FM280200 VRB03KT P6SM SCT060
     FM281400 14006KT P6SM SCT040=



000
FTUS41 KRNK 271731
TAFLYH
TAF
KLYH 271731Z 2718/2818 11005KT P6SM SCT040
     FM280200 VRB03KT P6SM SCT060
     FM281400 11005KT P6SM SCT040=



000
FTUS41 KRNK 271731
TAFBLF
TAF
KBLF 271731Z 2718/2818 VRB04KT P6SM BKN035
     FM280400 VRB03KT P6SM SCT060
      TEMPO 2808/2812 2SM BR SCT007
     FM281400 16005KT P6SM SCT035=



000
FTUS41 KRNK 271731
TAFDAN
TAF
KDAN 271731Z 2718/2818 05006KT P6SM SCT040
     FM280200 VRB03KT P6SM SCT060
     FM281400 09005KT P6SM SCT040=



000
FTUS41 KRNK 271731
TAFBLF
TAF
KBLF 271731Z 2718/2818 VRB04KT P6SM BKN035
     FM280400 VRB03KT P6SM SCT060
      TEMPO 2808/2812 2SM BR SCT007
     FM281400 16005KT P6SM SCT035=



000
FTUS41 KRNK 271731
TAFLYH
TAF
KLYH 271731Z 2718/2818 11005KT P6SM SCT040
     FM280200 VRB03KT P6SM SCT060
     FM281400 11005KT P6SM SCT040=



000
FTUS41 KRNK 271731
TAFBLF
TAF
KBLF 271731Z 2718/2818 VRB04KT P6SM BKN035
     FM280400 VRB03KT P6SM SCT060
      TEMPO 2808/2812 2SM BR SCT007
     FM281400 16005KT P6SM SCT035=



000
FTUS41 KRNK 271731
TAFLYH
TAF
KLYH 271731Z 2718/2818 11005KT P6SM SCT040
     FM280200 VRB03KT P6SM SCT060
     FM281400 11005KT P6SM SCT040=



000
FTUS41 KRNK 271731
TAFDAN
TAF
KDAN 271731Z 2718/2818 05006KT P6SM SCT040
     FM280200 VRB03KT P6SM SCT060
     FM281400 09005KT P6SM SCT040=



000
FTUS41 KRNK 271731
TAFROA
TAF
KROA 271731Z 2718/2818 VRB04KT P6SM BKN040
     FM280200 VRB03KT P6SM SCT060
     FM281400 14006KT P6SM SCT040=



000
FTUS41 KRNK 271731
TAFROA
TAF
KROA 271731Z 2718/2818 VRB04KT P6SM BKN040
     FM280200 VRB03KT P6SM SCT060
     FM281400 14006KT P6SM SCT040=



000
FTUS41 KRNK 271731
TAFLWB
TAF
KLWB 271731Z 2718/2818 VRB03KT P6SM BKN030
     FM280400 00000KT P6SM SCT030
     FM280600 00000KT 1/4SM FG VV001
     FM281330 VRB03KT P6SM BKN030=



000
FTUS41 KRNK 271615 AAA
TAFBLF
TAF AMD
KBLF 271615Z 2716/2812 VRB03KT P6SM BKN025
     FM271800 04006KT P6SM BKN035
     FM280000 13003KT P6SM SKC=



000
FTUS41 KRNK 271615 AAA
TAFBLF
TAF AMD
KBLF 271615Z 2716/2812 VRB03KT P6SM BKN025
     FM271800 04006KT P6SM BKN035
     FM280000 13003KT P6SM SKC=



000
FTUS41 KRNK 271519 AAB
TAFLWB
TAF AMD
KLWB 271519Z 2715/2812 VRB04KT P6SM BKN030
     FM272300 00000KT P6SM SKC
     FM280600 00000KT 1/4SM FG VV001=



000
FTUS41 KRNK 271519 AAB
TAFLWB
TAF AMD
KLWB 271519Z 2715/2812 VRB04KT P6SM BKN030
     FM272300 00000KT P6SM SKC
     FM280600 00000KT 1/4SM FG VV001=



000
FTUS41 KRNK 271519 AAB
TAFLWB
TAF AMD
KLWB 271519Z 2715/2812 VRB04KT P6SM BKN030
     FM272300 00000KT P6SM SKC
     FM280600 00000KT 1/4SM FG VV001=



000
FTUS41 KRNK 271233 AAA
TAFLWB
TAF AMD
KLWB 271233Z 2713/2812 00000KT 1/4SM FG VV001
     FM271330 33004KT P6SM SCT045
     FM272300 00000KT P6SM SKC
     FM280600 00000KT 1/4SM FG VV001=



000
FTUS41 KRNK 271233 AAA
TAFLWB
TAF AMD
KLWB 271233Z 2713/2812 00000KT 1/4SM FG VV001
     FM271330 33004KT P6SM SCT045
     FM272300 00000KT P6SM SKC
     FM280600 00000KT 1/4SM FG VV001=



000
FTUS41 KRNK 271233 AAA
TAFLWB
TAF AMD
KLWB 271233Z 2713/2812 00000KT 1/4SM FG VV001
     FM271330 33004KT P6SM SCT045
     FM272300 00000KT P6SM SKC
     FM280600 00000KT 1/4SM FG VV001=



000
FTUS41 KRNK 271233 AAA
TAFLWB
TAF AMD
KLWB 271233Z 2713/2812 00000KT 1/4SM FG VV001
     FM271330 33004KT P6SM SCT045
     FM272300 00000KT P6SM SKC
     FM280600 00000KT 1/4SM FG VV001=



000
FTUS41 KRNK 271124
TAFBLF
TAF
KBLF 271124Z 2712/2812 00000KT 2SM BR SCT060
      TEMPO 2712/2713 4SM BR
     FM271300 VRB03KT P6SM BKN045
     FM280000 13003KT P6SM SKC=



000
FTUS41 KRNK 271124
TAFLWB
TAF
KLWB 271124Z 2712/2812 00000KT 1/4SM FG VV001
     FM271300 33004KT P6SM SCT045
     FM272300 00000KT P6SM SKC
     FM280600 00000KT 1/4SM FG VV001=



000
FTUS41 KRNK 271124
TAFLYH
TAF
KLYH 271124Z 2712/2812 03003KT P6SM BKN035
     FM271400 02005KT P6SM BKN060
     FM272200 04003KT P6SM SKC=



000
FTUS41 KRNK 271124
TAFLWB
TAF
KLWB 271124Z 2712/2812 00000KT 1/4SM FG VV001
     FM271300 33004KT P6SM SCT045
     FM272300 00000KT P6SM SKC
     FM280600 00000KT 1/4SM FG VV001=



000
FTUS41 KRNK 271124
TAFLWB
TAF
KLWB 271124Z 2712/2812 00000KT 1/4SM FG VV001
     FM271300 33004KT P6SM SCT045
     FM272300 00000KT P6SM SKC
     FM280600 00000KT 1/4SM FG VV001=



000
FTUS41 KRNK 271124
TAFDAN
TAF
KDAN 271124Z 2712/2812 03004KT P6SM BKN080
     FM271400 06008KT P6SM BKN060
     FM280000 05003KT P6SM SKC
     FM280900 03002KT 5SM BR BKN035=



000
FTUS41 KRNK 271124
TAFBLF
TAF
KBLF 271124Z 2712/2812 00000KT 2SM BR SCT060
      TEMPO 2712/2713 4SM BR
     FM271300 VRB03KT P6SM BKN045
     FM280000 13003KT P6SM SKC=



000
FTUS41 KRNK 271124
TAFROA
TAF
KROA 271124Z 2712/2812 VRB03KT P6SM BKN035
     FM271400 04004KT P6SM BKN040
     FM272000 11007KT P6SM BKN060
     FM280100 08003KT P6SM SKC=



000
FTUS41 KRNK 271124
TAFBLF
TAF
KBLF 271124Z 2712/2812 00000KT 2SM BR SCT060
      TEMPO 2712/2713 4SM BR
     FM271300 VRB03KT P6SM BKN045
     FM280000 13003KT P6SM SKC=



000
FTUS41 KRNK 271124
TAFLYH
TAF
KLYH 271124Z 2712/2812 03003KT P6SM BKN035
     FM271400 02005KT P6SM BKN060
     FM272200 04003KT P6SM SKC=



000
FTUS41 KRNK 271124
TAFROA
TAF
KROA 271124Z 2712/2812 VRB03KT P6SM BKN035
     FM271400 04004KT P6SM BKN040
     FM272000 11007KT P6SM BKN060
     FM280100 08003KT P6SM SKC=



000
FTUS41 KRNK 271124
TAFDAN
TAF
KDAN 271124Z 2712/2812 03004KT P6SM BKN080
     FM271400 06008KT P6SM BKN060
     FM280000 05003KT P6SM SKC
     FM280900 03002KT 5SM BR BKN035=



000
FTUS41 KRNK 271124
TAFBLF
TAF
KBLF 271124Z 2712/2812 00000KT 2SM BR SCT060
      TEMPO 2712/2713 4SM BR
     FM271300 VRB03KT P6SM BKN045
     FM280000 13003KT P6SM SKC=



000
FTUS41 KRNK 271124
TAFLWB
TAF
KLWB 271124Z 2712/2812 00000KT 1/4SM FG VV001
     FM271300 33004KT P6SM SCT045
     FM272300 00000KT P6SM SKC
     FM280600 00000KT 1/4SM FG VV001=



000
FTUS41 KRNK 271124
TAFLYH
TAF
KLYH 271124Z 2712/2812 03003KT P6SM BKN035
     FM271400 02005KT P6SM BKN060
     FM272200 04003KT P6SM SKC=



000
FTUS41 KRNK 271124
TAFDAN
TAF
KDAN 271124Z 2712/2812 03004KT P6SM BKN080
     FM271400 06008KT P6SM BKN060
     FM280000 05003KT P6SM SKC
     FM280900 03002KT 5SM BR BKN035=



000
FTUS41 KRNK 271124
TAFDAN
TAF
KDAN 271124Z 2712/2812 03004KT P6SM BKN080
     FM271400 06008KT P6SM BKN060
     FM280000 05003KT P6SM SKC
     FM280900 03002KT 5SM BR BKN035=



000
FTUS41 KRNK 271124
TAFLYH
TAF
KLYH 271124Z 2712/2812 03003KT P6SM BKN035
     FM271400 02005KT P6SM BKN060
     FM272200 04003KT P6SM SKC=



000
FTUS41 KRNK 271124
TAFROA
TAF
KROA 271124Z 2712/2812 VRB03KT P6SM BKN035
     FM271400 04004KT P6SM BKN040
     FM272000 11007KT P6SM BKN060
     FM280100 08003KT P6SM SKC=



000
FTUS41 KRNK 271124
TAFROA
TAF
KROA 271124Z 2712/2812 VRB03KT P6SM BKN035
     FM271400 04004KT P6SM BKN040
     FM272000 11007KT P6SM BKN060
     FM280100 08003KT P6SM SKC=



000
FTUS41 KRNK 271108 AAA
TAFBLF
TAF AMD
KBLF 271108Z 2711/2806 00000KT 1 1/2SM BR SCT060
      TEMPO 2712/2713 4SM BR
     FM271300 11004KT P6SM BKN045
     FM280000 13003KT P6SM SKC=



000
FTUS41 KRNK 271108 AAA
TAFBLF
TAF AMD
KBLF 271108Z 2711/2806 00000KT 1 1/2SM BR SCT060
      TEMPO 2712/2713 4SM BR
     FM271300 11004KT P6SM BKN045
     FM280000 13003KT P6SM SKC=



000
FTUS41 KRNK 271108 AAA
TAFBLF
TAF AMD
KBLF 271108Z 2711/2806 00000KT 1 1/2SM BR SCT060
      TEMPO 2712/2713 4SM BR
     FM271300 11004KT P6SM BKN045
     FM280000 13003KT P6SM SKC=



000
FTUS41 KRNK 270705 AAA
TAFLWB
TAF AMD
KLWB 270705Z 2707/2806 00000KT 1/4SM FG VV001
     FM271300 05004KT P6SM SCT045
     FM280100 00000KT P6SM SKC=



000
FTUS41 KRNK 270705 AAA
TAFLWB
TAF AMD
KLWB 270705Z 2707/2806 00000KT 1/4SM FG VV001
     FM271300 05004KT P6SM SCT045
     FM280100 00000KT P6SM SKC=



000
FTUS41 KRNK 270705 AAA
TAFLWB
TAF AMD
KLWB 270705Z 2707/2806 00000KT 1/4SM FG VV001
     FM271300 05004KT P6SM SCT045
     FM280100 00000KT P6SM SKC=



000
FTUS41 KRNK 270705 AAA
TAFLWB
TAF AMD
KLWB 270705Z 2707/2806 00000KT 1/4SM FG VV001
     FM271300 05004KT P6SM SCT045
     FM280100 00000KT P6SM SKC=



000
FTUS41 KRNK 270528
TAFROA
TAF
KROA 270528Z 2706/2806 04003KT P6SM SCT060
     FM271400 07004KT P6SM SCT050
     FM271900 12007KT P6SM BKN050
     FM280100 08003KT P6SM SKC=



000
FTUS41 KRNK 270528
TAFLWB
TAF
KLWB 270528Z 2706/2806 00000KT P6SM SCT040
     FM270800 00000KT 4SM BR SKC
     FM271000 00000KT 1/4SM FG VV001
     FM271300 05004KT P6SM SCT045
     FM280100 00000KT P6SM SKC=



000
FTUS41 KRNK 270528
TAFROA
TAF
KROA 270528Z 2706/2806 04003KT P6SM SCT060
     FM271400 07004KT P6SM SCT050
     FM271900 12007KT P6SM BKN050
     FM280100 08003KT P6SM SKC=



000
FTUS41 KRNK 270528
TAFBLF
TAF
KBLF 270528Z 2706/2806 00000KT P6SM SCT045
     FM271400 11004KT P6SM BKN045
     FM280000 13003KT P6SM SKC=



000
FTUS41 KRNK 270528
TAFLYH
TAF
KLYH 270528Z 2706/2806 03005KT P6SM BKN045
     FM271400 04006KT P6SM BKN060
     FM272200 05003KT P6SM SKC=



000
FTUS41 KRNK 270528
TAFDAN
TAF
KDAN 270528Z 2706/2806 01004KT P6SM SCT060
     FM271400 06008KT P6SM BKN060
     FM272200 05003KT P6SM SKC=



000
FTUS41 KRNK 270528
TAFROA
TAF
KROA 270528Z 2706/2806 04003KT P6SM SCT060
     FM271400 07004KT P6SM SCT050
     FM271900 12007KT P6SM BKN050
     FM280100 08003KT P6SM SKC=



000
FTUS41 KRNK 270528
TAFLWB
TAF
KLWB 270528Z 2706/2806 00000KT P6SM SCT040
     FM270800 00000KT 4SM BR SKC
     FM271000 00000KT 1/4SM FG VV001
     FM271300 05004KT P6SM SCT045
     FM280100 00000KT P6SM SKC=



000
FTUS41 KRNK 270528
TAFDAN
TAF
KDAN 270528Z 2706/2806 01004KT P6SM SCT060
     FM271400 06008KT P6SM BKN060
     FM272200 05003KT P6SM SKC=



000
FTUS41 KRNK 270528
TAFLYH
TAF
KLYH 270528Z 2706/2806 03005KT P6SM BKN045
     FM271400 04006KT P6SM BKN060
     FM272200 05003KT P6SM SKC=



000
FTUS41 KRNK 270528
TAFBLF
TAF
KBLF 270528Z 2706/2806 00000KT P6SM SCT045
     FM271400 11004KT P6SM BKN045
     FM280000 13003KT P6SM SKC=



000
FTUS41 KRNK 270528
TAFLYH
TAF
KLYH 270528Z 2706/2806 03005KT P6SM BKN045
     FM271400 04006KT P6SM BKN060
     FM272200 05003KT P6SM SKC=



000
FTUS41 KRNK 270528
TAFLWB
TAF
KLWB 270528Z 2706/2806 00000KT P6SM SCT040
     FM270800 00000KT 4SM BR SKC
     FM271000 00000KT 1/4SM FG VV001
     FM271300 05004KT P6SM SCT045
     FM280100 00000KT P6SM SKC=



000
FTUS41 KRNK 270528
TAFROA
TAF
KROA 270528Z 2706/2806 04003KT P6SM SCT060
     FM271400 07004KT P6SM SCT050
     FM271900 12007KT P6SM BKN050
     FM280100 08003KT P6SM SKC=



000
FTUS41 KRNK 270528
TAFDAN
TAF
KDAN 270528Z 2706/2806 01004KT P6SM SCT060
     FM271400 06008KT P6SM BKN060
     FM272200 05003KT P6SM SKC=



000
FTUS41 KRNK 270528
TAFBLF
TAF
KBLF 270528Z 2706/2806 00000KT P6SM SCT045
     FM271400 11004KT P6SM BKN045
     FM280000 13003KT P6SM SKC=



000
FTUS41 KRNK 270528
TAFDAN
TAF
KDAN 270528Z 2706/2806 01004KT P6SM SCT060
     FM271400 06008KT P6SM BKN060
     FM272200 05003KT P6SM SKC=



000
FTUS41 KRNK 270528
TAFBLF
TAF
KBLF 270528Z 2706/2806 00000KT P6SM SCT045
     FM271400 11004KT P6SM BKN045
     FM280000 13003KT P6SM SKC=



000
FTUS41 KRNK 270528
TAFLWB
TAF
KLWB 270528Z 2706/2806 00000KT P6SM SCT040
     FM270800 00000KT 4SM BR SKC
     FM271000 00000KT 1/4SM FG VV001
     FM271300 05004KT P6SM SCT045
     FM280100 00000KT P6SM SKC=



000
FTUS41 KRNK 270528
TAFLYH
TAF
KLYH 270528Z 2706/2806 03005KT P6SM BKN045
     FM271400 04006KT P6SM BKN060
     FM272200 05003KT P6SM SKC=



000
FTUS41 KRNK 262335
TAFLWB
TAF
KLWB 262335Z 2700/2724 VRB03KT P6SM SCT040
     FM270800 00000KT 4SM BR SKC
      TEMPO 2710/2713 1/4SM FG VV001
     FM271400 07005KT P6SM SCT045=



000
FTUS41 KRNK 262335
TAFROA
TAF
KROA 262335Z 2700/2724 34006KT P6SM SCT060
     FM270200 35004KT P6SM SKC
     FM271400 07007KT P6SM SCT050
      TEMPO 2718/2722 BKN050=



000
FTUS41 KRNK 262335
TAFLWB
TAF
KLWB 262335Z 2700/2724 VRB03KT P6SM SCT040
     FM270800 00000KT 4SM BR SKC
      TEMPO 2710/2713 1/4SM FG VV001
     FM271400 07005KT P6SM SCT045=



000
FTUS41 KRNK 262335
TAFBLF
TAF
KBLF 262335Z 2700/2724 VRB04KT P6SM BKN040
     FM270200 VRB03KT P6SM SCT035
     FM271400 12007KT P6SM BKN045=



000
FTUS41 KRNK 262335
TAFLWB
TAF
KLWB 262335Z 2700/2724 VRB03KT P6SM SCT040
     FM270800 00000KT 4SM BR SKC
      TEMPO 2710/2713 1/4SM FG VV001
     FM271400 07005KT P6SM SCT045=



000
FTUS41 KRNK 262335
TAFLYH
TAF
KLYH 262335Z 2700/2724 03004KT P6SM SCT060
     FM270200 03003KT P6SM SKC
     FM271400 05008KT P6SM SCT060=



000
FTUS41 KRNK 262335
TAFROA
TAF
KROA 262335Z 2700/2724 34006KT P6SM SCT060
     FM270200 35004KT P6SM SKC
     FM271400 07007KT P6SM SCT050
      TEMPO 2718/2722 BKN050=



000
FTUS41 KRNK 262335
TAFLYH
TAF
KLYH 262335Z 2700/2724 03004KT P6SM SCT060
     FM270200 03003KT P6SM SKC
     FM271400 05008KT P6SM SCT060=



000
FTUS41 KRNK 262335
TAFBLF
TAF
KBLF 262335Z 2700/2724 VRB04KT P6SM BKN040
     FM270200 VRB03KT P6SM SCT035
     FM271400 12007KT P6SM BKN045=



000
FTUS41 KRNK 262335
TAFDAN
TAF
KDAN 262335Z 2700/2724 07005KT P6SM SCT060
      TEMPO 2700/2702 BKN060
     FM271400 07009KT P6SM SCT060=



000
FTUS41 KRNK 262335
TAFBLF
TAF
KBLF 262335Z 2700/2724 VRB04KT P6SM BKN040
     FM270200 VRB03KT P6SM SCT035
     FM271400 12007KT P6SM BKN045=



000
FTUS41 KRNK 262335
TAFROA
TAF
KROA 262335Z 2700/2724 34006KT P6SM SCT060
     FM270200 35004KT P6SM SKC
     FM271400 07007KT P6SM SCT050
      TEMPO 2718/2722 BKN050=



000
FTUS41 KRNK 262335
TAFDAN
TAF
KDAN 262335Z 2700/2724 07005KT P6SM SCT060
      TEMPO 2700/2702 BKN060
     FM271400 07009KT P6SM SCT060=



000
FTUS41 KRNK 262335
TAFDAN
TAF
KDAN 262335Z 2700/2724 07005KT P6SM SCT060
      TEMPO 2700/2702 BKN060
     FM271400 07009KT P6SM SCT060=



000
FTUS41 KRNK 262335
TAFBLF
TAF
KBLF 262335Z 2700/2724 VRB04KT P6SM BKN040
     FM270200 VRB03KT P6SM SCT035
     FM271400 12007KT P6SM BKN045=



000
FTUS41 KRNK 262335
TAFLYH
TAF
KLYH 262335Z 2700/2724 03004KT P6SM SCT060
     FM270200 03003KT P6SM SKC
     FM271400 05008KT P6SM SCT060=



000
FTUS41 KRNK 262335
TAFROA
TAF
KROA 262335Z 2700/2724 34006KT P6SM SCT060
     FM270200 35004KT P6SM SKC
     FM271400 07007KT P6SM SCT050
      TEMPO 2718/2722 BKN050=



000
FTUS41 KRNK 262335
TAFLWB
TAF
KLWB 262335Z 2700/2724 VRB03KT P6SM SCT040
     FM270800 00000KT 4SM BR SKC
      TEMPO 2710/2713 1/4SM FG VV001
     FM271400 07005KT P6SM SCT045=



000
FTUS41 KRNK 261727
TAFDAN
TAF
KDAN 261727Z 2618/2718 06009KT P6SM FEW090
     FM270000 04002KT P6SM SCT250
     FM271400 04008KT P6SM SCT050 BKN250=



000
FTUS41 KRNK 261727
TAFLYH
TAF
KLYH 261727Z 2618/2718 12005KT P6SM SCT080
     FM262300 01005KT P6SM BKN100
     FM271400 05004KT P6SM BKN250=



000
FTUS41 KRNK 261727
TAFBLF
TAF
KBLF 261727Z 2618/2718 30008KT P6SM BKN035
     FM262300 35004KT P6SM SCT040
     FM271400 11007KT P6SM BKN050=



000
FTUS41 KRNK 261727
TAFROA
TAF
KROA 261727Z 2618/2718 32008KT P6SM SCT060
     FM270100 32004KT P6SM SCT100
     FM271200 VRB03KT P6SM SCT050 BKN250=



000
FTUS41 KRNK 261727
TAFLWB
TAF
KLWB 261727Z 2618/2718 VRB04KT P6SM SCT030 BKN050
     FM270900 32003KT 4SM BR FEW040
     FM271100 00000KT 1/4SM FG BKN001
     FM271300 VRB04KT P6SM SCT025 BKN050=



000
FTUS41 KRNK 261727
TAFROA
TAF
KROA 261727Z 2618/2718 32008KT P6SM SCT060
     FM270100 32004KT P6SM SCT100
     FM271200 VRB03KT P6SM SCT050 BKN250=



000
FTUS41 KRNK 261727
TAFLWB
TAF
KLWB 261727Z 2618/2718 VRB04KT P6SM SCT030 BKN050
     FM270900 32003KT 4SM BR FEW040
     FM271100 00000KT 1/4SM FG BKN001
     FM271300 VRB04KT P6SM SCT025 BKN050=



000
FTUS41 KRNK 261727
TAFLYH
TAF
KLYH 261727Z 2618/2718 12005KT P6SM SCT080
     FM262300 01005KT P6SM BKN100
     FM271400 05004KT P6SM BKN250=



000
FTUS41 KRNK 261727
TAFLYH
TAF
KLYH 261727Z 2618/2718 12005KT P6SM SCT080
     FM262300 01005KT P6SM BKN100
     FM271400 05004KT P6SM BKN250=



000
FTUS41 KRNK 261727
TAFDAN
TAF
KDAN 261727Z 2618/2718 06009KT P6SM FEW090
     FM270000 04002KT P6SM SCT250
     FM271400 04008KT P6SM SCT050 BKN250=



000
FTUS41 KRNK 261727
TAFBLF
TAF
KBLF 261727Z 2618/2718 30008KT P6SM BKN035
     FM262300 35004KT P6SM SCT040
     FM271400 11007KT P6SM BKN050=



000
FTUS41 KRNK 261727
TAFDAN
TAF
KDAN 261727Z 2618/2718 06009KT P6SM FEW090
     FM270000 04002KT P6SM SCT250
     FM271400 04008KT P6SM SCT050 BKN250=



000
FTUS41 KRNK 261727
TAFLWB
TAF
KLWB 261727Z 2618/2718 VRB04KT P6SM SCT030 BKN050
     FM270900 32003KT 4SM BR FEW040
     FM271100 00000KT 1/4SM FG BKN001
     FM271300 VRB04KT P6SM SCT025 BKN050=



000
FTUS41 KRNK 261727
TAFBLF
TAF
KBLF 261727Z 2618/2718 30008KT P6SM BKN035
     FM262300 35004KT P6SM SCT040
     FM271400 11007KT P6SM BKN050=



000
FTUS41 KRNK 261727
TAFROA
TAF
KROA 261727Z 2618/2718 32008KT P6SM SCT060
     FM270100 32004KT P6SM SCT100
     FM271200 VRB03KT P6SM SCT050 BKN250=



000
FTUS41 KRNK 261727
TAFLWB
TAF
KLWB 261727Z 2618/2718 VRB04KT P6SM SCT030 BKN050
     FM270900 32003KT 4SM BR FEW040
     FM271100 00000KT 1/4SM FG BKN001
     FM271300 VRB04KT P6SM SCT025 BKN050=



000
FTUS41 KRNK 261727
TAFLYH
TAF
KLYH 261727Z 2618/2718 12005KT P6SM SCT080
     FM262300 01005KT P6SM BKN100
     FM271400 05004KT P6SM BKN250=



000
FTUS41 KRNK 261727
TAFDAN
TAF
KDAN 261727Z 2618/2718 06009KT P6SM FEW090
     FM270000 04002KT P6SM SCT250
     FM271400 04008KT P6SM SCT050 BKN250=



000
FTUS41 KRNK 261727
TAFBLF
TAF
KBLF 261727Z 2618/2718 30008KT P6SM BKN035
     FM262300 35004KT P6SM SCT040
     FM271400 11007KT P6SM BKN050=



000
FTUS41 KRNK 261727
TAFROA
TAF
KROA 261727Z 2618/2718 32008KT P6SM SCT060
     FM270100 32004KT P6SM SCT100
     FM271200 VRB03KT P6SM SCT050 BKN250=



000
FTUS41 KRNK 261708 AAB
TAFROA
TAF AMD
KROA 261708Z 2617/2712 VRB05KT P6SM SCT060
     FM261800 32004KT P6SM FEW070=



000
FTUS41 KRNK 261708 AAB
TAFROA
TAF AMD
KROA 261708Z 2617/2712 VRB05KT P6SM SCT060
     FM261800 32004KT P6SM FEW070=



000
FTUS41 KRNK 261708 AAB
TAFROA
TAF AMD
KROA 261708Z 2617/2712 VRB05KT P6SM SCT060
     FM261800 32004KT P6SM FEW070=



000
FTUS41 KRNK 261708 AAB
TAFROA
TAF AMD
KROA 261708Z 2617/2712 VRB05KT P6SM SCT060
     FM261800 32004KT P6SM FEW070=



000
FTUS41 KRNK 261631 AAA
TAFROA
TAF AMD
KROA 261631Z 2617/2712 VRB04KT 3SM HZ BKN060
     FM261800 32004KT P6SM FEW070=



000
FTUS41 KRNK 261631 AAA
TAFROA
TAF AMD
KROA 261631Z 2617/2712 VRB04KT 3SM HZ BKN060
     FM261800 32004KT P6SM FEW070=



000
FTUS41 KRNK 261348 AAC
TAFLWB
TAF AMD
KLWB 261348Z 2614/2712 00000KT P6SM SCT001
     FM261500 VRB04KT P6SM SCT030
     FM270900 32003KT 2SM BR FEW040=



000
FTUS41 KRNK 261348 AAC
TAFLWB
TAF AMD
KLWB 261348Z 2614/2712 00000KT P6SM SCT001
     FM261500 VRB04KT P6SM SCT030
     FM270900 32003KT 2SM BR FEW040=



000
FTUS41 KRNK 261348 AAC
TAFLWB
TAF AMD
KLWB 261348Z 2614/2712 00000KT P6SM SCT001
     FM261500 VRB04KT P6SM SCT030
     FM270900 32003KT 2SM BR FEW040=



000
FTUS41 KRNK 261348 AAC
TAFLWB
TAF AMD
KLWB 261348Z 2614/2712 00000KT P6SM SCT001
     FM261500 VRB04KT P6SM SCT030
     FM270900 32003KT 2SM BR FEW040=



000
FTUS41 KRNK 261303 AAB
TAFLWB
TAF AMD
KLWB 261303Z 2613/2712 00000KT 1/4SM FG OVC001
     FM261400 00000KT P6SM SCT050
     FM270900 32003KT 2SM BR FEW040=



000
FTUS41 KRNK 261303 AAB
TAFLWB
TAF AMD
KLWB 261303Z 2613/2712 00000KT 1/4SM FG OVC001
     FM261400 00000KT P6SM SCT050
     FM270900 32003KT 2SM BR FEW040=



000
FTUS41 KRNK 261303 AAB
TAFLWB
TAF AMD
KLWB 261303Z 2613/2712 00000KT 1/4SM FG OVC001
     FM261400 00000KT P6SM SCT050
     FM270900 32003KT 2SM BR FEW040=



000
FTUS41 KRNK 261213 AAA
TAFLWB
TAF AMD
KLWB 261213Z 2612/2712 00000KT 1/4SM FG OVC001
     FM261300 00000KT P6SM SCT050
     FM270900 32003KT 2SM BR FEW040=



000
FTUS41 KRNK 261213 AAA
TAFLWB
TAF AMD
KLWB 261213Z 2612/2712 00000KT 1/4SM FG OVC001
     FM261300 00000KT P6SM SCT050
     FM270900 32003KT 2SM BR FEW040=



000
FTUS41 KRNK 261213 AAA
TAFLWB
TAF AMD
KLWB 261213Z 2612/2712 00000KT 1/4SM FG OVC001
     FM261300 00000KT P6SM SCT050
     FM270900 32003KT 2SM BR FEW040=



000
FTUS41 KRNK 261213 AAA
TAFLWB
TAF AMD
KLWB 261213Z 2612/2712 00000KT 1/4SM FG OVC001
     FM261300 00000KT P6SM SCT050
     FM270900 32003KT 2SM BR FEW040=



000
FTUS41 KRNK 261120
TAFLYH
TAF
KLYH 261120Z 2612/2712 36005KT P6SM FEW080=



000
FTUS41 KRNK 261120
TAFLYH
TAF
KLYH 261120Z 2612/2712 36005KT P6SM FEW080=



000
FTUS41 KRNK 261120
TAFBLF
TAF
KBLF 261120Z 2612/2712 30004KT P6SM SCT050=



000
FTUS41 KRNK 261120
TAFLWB
TAF
KLWB 261120Z 2612/2712 00000KT P6SM SCT050
     FM270900 32003KT 2SM BR FEW040=



000
FTUS41 KRNK 261120
TAFROA
TAF
KROA 261120Z 2612/2712 32004KT P6SM FEW070=



000
FTUS41 KRNK 261120
TAFDAN
TAF
KDAN 261120Z 2612/2712 02005KT P6SM FEW090=



000
FTUS41 KRNK 261120
TAFROA
TAF
KROA 261120Z 2612/2712 32004KT P6SM FEW070=



000
FTUS41 KRNK 261120
TAFBLF
TAF
KBLF 261120Z 2612/2712 30004KT P6SM SCT050=



000
FTUS41 KRNK 261120
TAFLYH
TAF
KLYH 261120Z 2612/2712 36005KT P6SM FEW080=



000
FTUS41 KRNK 261120
TAFLWB
TAF
KLWB 261120Z 2612/2712 00000KT P6SM SCT050
     FM270900 32003KT 2SM BR FEW040=



000
FTUS41 KRNK 261120
TAFDAN
TAF
KDAN 261120Z 2612/2712 02005KT P6SM FEW090=



000
FTUS41 KRNK 261120
TAFROA
TAF
KROA 261120Z 2612/2712 32004KT P6SM FEW070=



000
FTUS41 KRNK 261120
TAFLWB
TAF
KLWB 261120Z 2612/2712 00000KT P6SM SCT050
     FM270900 32003KT 2SM BR FEW040=



000
FTUS41 KRNK 261120
TAFBLF
TAF
KBLF 261120Z 2612/2712 30004KT P6SM SCT050=



000
FTUS41 KRNK 261120
TAFDAN
TAF
KDAN 261120Z 2612/2712 02005KT P6SM FEW090=



000
FTUS41 KRNK 261120
TAFLYH
TAF
KLYH 261120Z 2612/2712 36005KT P6SM FEW080=



000
FTUS41 KRNK 261120
TAFLWB
TAF
KLWB 261120Z 2612/2712 00000KT P6SM SCT050
     FM270900 32003KT 2SM BR FEW040=



000
FTUS41 KRNK 261120
TAFROA
TAF
KROA 261120Z 2612/2712 32004KT P6SM FEW070=



000
FTUS41 KRNK 261120
TAFDAN
TAF
KDAN 261120Z 2612/2712 02005KT P6SM FEW090=



000
FTUS41 KRNK 261120
TAFBLF
TAF
KBLF 261120Z 2612/2712 30004KT P6SM SCT050=



000
FTUS41 KRNK 260523
TAFBLF
TAF
KBLF 260523Z 2606/2706 27004KT P6SM SCT035
     FM261500 31006KT P6SM SCT035=



000
FTUS41 KRNK 260523
TAFLWB
TAF
KLWB 260523Z 2606/2706 00000KT P6SM BKN045
     FM260900 00000KT 4SM BR SCT020
      TEMPO 2610/2612 1/4SM FG BKN002
     FM261300 32003KT P6SM FEW040=



000
FTUS41 KRNK 260523
TAFLYH
TAF
KLYH 260523Z 2606/2706 34003KT P6SM SCT050=



000
FTUS41 KRNK 260523
TAFDAN
TAF
KDAN 260523Z 2606/2706 36005KT P6SM SCT050=



000
FTUS41 KRNK 260523
TAFLWB
TAF
KLWB 260523Z 2606/2706 00000KT P6SM BKN045
     FM260900 00000KT 4SM BR SCT020
      TEMPO 2610/2612 1/4SM FG BKN002
     FM261300 32003KT P6SM FEW040=



000
FTUS41 KRNK 260523
TAFDAN
TAF
KDAN 260523Z 2606/2706 36005KT P6SM SCT050=



000
FTUS41 KRNK 260523
TAFROA
TAF
KROA 260523Z 2606/2706 32006KT P6SM FEW050=



000
FTUS41 KRNK 260523
TAFBLF
TAF
KBLF 260523Z 2606/2706 27004KT P6SM SCT035
     FM261500 31006KT P6SM SCT035=



000
FTUS41 KRNK 260523
TAFLYH
TAF
KLYH 260523Z 2606/2706 34003KT P6SM SCT050=



000
FTUS41 KRNK 260523
TAFLYH
TAF
KLYH 260523Z 2606/2706 34003KT P6SM SCT050=



000
FTUS41 KRNK 260523
TAFLWB
TAF
KLWB 260523Z 2606/2706 00000KT P6SM BKN045
     FM260900 00000KT 4SM BR SCT020
      TEMPO 2610/2612 1/4SM FG BKN002
     FM261300 32003KT P6SM FEW040=



000
FTUS41 KRNK 260523
TAFDAN
TAF
KDAN 260523Z 2606/2706 36005KT P6SM SCT050=



000
FTUS41 KRNK 260523
TAFROA
TAF
KROA 260523Z 2606/2706 32006KT P6SM FEW050=



000
FTUS41 KRNK 260523
TAFLWB
TAF
KLWB 260523Z 2606/2706 00000KT P6SM BKN045
     FM260900 00000KT 4SM BR SCT020
      TEMPO 2610/2612 1/4SM FG BKN002
     FM261300 32003KT P6SM FEW040=



000
FTUS41 KRNK 260523
TAFROA
TAF
KROA 260523Z 2606/2706 32006KT P6SM FEW050=



000
FTUS41 KRNK 260523
TAFBLF
TAF
KBLF 260523Z 2606/2706 27004KT P6SM SCT035
     FM261500 31006KT P6SM SCT035=



000
FTUS41 KRNK 260523
TAFDAN
TAF
KDAN 260523Z 2606/2706 36005KT P6SM SCT050=



000
FTUS41 KRNK 260523
TAFLYH
TAF
KLYH 260523Z 2606/2706 34003KT P6SM SCT050=



000
FTUS41 KRNK 260523
TAFBLF
TAF
KBLF 260523Z 2606/2706 27004KT P6SM SCT035
     FM261500 31006KT P6SM SCT035=



000
FTUS41 KRNK 252321
TAFLWB
TAF
KLWB 252321Z 2600/2624 33003KT P6SM SCT050
     FM260900 00000KT 4SM BR SCT020
      TEMPO 2610/2612 1/4SM FG BKN002
     FM261300 32003KT P6SM FEW040=



000
FTUS41 KRNK 252321
TAFBLF
TAF
KBLF 252321Z 2600/2624 31009KT P6SM SKC
     FM260100 26004KT P6SM FEW050
     FM261500 31008KT P6SM SCT050=



000
FTUS41 KRNK 252321
TAFDAN
TAF
KDAN 252321Z 2600/2624 35004KT P6SM SCT050=



000
FTUS41 KRNK 252321
TAFROA
TAF
KROA 252321Z 2600/2624 30007KT P6SM SKC
     FM260400 31003KT P6SM SCT050
     FM261600 32007KT P6SM SKC=



000
FTUS41 KRNK 252321
TAFLYH
TAF
KLYH 252321Z 2600/2624 00000KT P6SM SKC
     FM260700 00000KT P6SM SCT040
     FM261800 VRB03KT P6SM SKC=



000
FTUS41 KRNK 252321
TAFLWB
TAF
KLWB 252321Z 2600/2624 33003KT P6SM SCT050
     FM260900 00000KT 4SM BR SCT020
      TEMPO 2610/2612 1/4SM FG BKN002
     FM261300 32003KT P6SM FEW040=



000
FTUS41 KRNK 252321
TAFDAN
TAF
KDAN 252321Z 2600/2624 35004KT P6SM SCT050=



000
FTUS41 KRNK 252321
TAFLWB
TAF
KLWB 252321Z 2600/2624 33003KT P6SM SCT050
     FM260900 00000KT 4SM BR SCT020
      TEMPO 2610/2612 1/4SM FG BKN002
     FM261300 32003KT P6SM FEW040=



000
FTUS41 KRNK 252321
TAFBLF
TAF
KBLF 252321Z 2600/2624 31009KT P6SM SKC
     FM260100 26004KT P6SM FEW050
     FM261500 31008KT P6SM SCT050=



000
FTUS41 KRNK 252321
TAFROA
TAF
KROA 252321Z 2600/2624 30007KT P6SM SKC
     FM260400 31003KT P6SM SCT050
     FM261600 32007KT P6SM SKC=



000
FTUS41 KRNK 252321
TAFLYH
TAF
KLYH 252321Z 2600/2624 00000KT P6SM SKC
     FM260700 00000KT P6SM SCT040
     FM261800 VRB03KT P6SM SKC=



000
FTUS41 KRNK 252321
TAFBLF
TAF
KBLF 252321Z 2600/2624 31009KT P6SM SKC
     FM260100 26004KT P6SM FEW050
     FM261500 31008KT P6SM SCT050=



000
FTUS41 KRNK 252321
TAFDAN
TAF
KDAN 252321Z 2600/2624 35004KT P6SM SCT050=



000
FTUS41 KRNK 252321
TAFROA
TAF
KROA 252321Z 2600/2624 30007KT P6SM SKC
     FM260400 31003KT P6SM SCT050
     FM261600 32007KT P6SM SKC=



000
FTUS41 KRNK 252321
TAFLYH
TAF
KLYH 252321Z 2600/2624 00000KT P6SM SKC
     FM260700 00000KT P6SM SCT040
     FM261800 VRB03KT P6SM SKC=



000
FTUS41 KRNK 252321
TAFLWB
TAF
KLWB 252321Z 2600/2624 33003KT P6SM SCT050
     FM260900 00000KT 4SM BR SCT020
      TEMPO 2610/2612 1/4SM FG BKN002
     FM261300 32003KT P6SM FEW040=



000
FTUS41 KRNK 252321
TAFDAN
TAF
KDAN 252321Z 2600/2624 35004KT P6SM SCT050=



000
FTUS41 KRNK 252321
TAFLYH
TAF
KLYH 252321Z 2600/2624 00000KT P6SM SKC
     FM260700 00000KT P6SM SCT040
     FM261800 VRB03KT P6SM SKC=



000
FTUS41 KRNK 252321
TAFROA
TAF
KROA 252321Z 2600/2624 30007KT P6SM SKC
     FM260400 31003KT P6SM SCT050
     FM261600 32007KT P6SM SKC=



000
FTUS41 KRNK 252321
TAFBLF
TAF
KBLF 252321Z 2600/2624 31009KT P6SM SKC
     FM260100 26004KT P6SM FEW050
     FM261500 31008KT P6SM SCT050=



000
FTUS41 KRNK 251722
TAFLWB
TAF
KLWB 251722Z 2518/2618 32007KT P6SM SCT035
     FM260100 30004KT P6SM SKC
     FM260900 30002KT 4SM BR SCT020
      TEMPO 2610/2612 1/4SM FG BKN002
     FM261300 32003KT P6SM SCT035=



000
FTUS41 KRNK 251722
TAFDAN
TAF
KDAN 251722Z 2518/2618 35005KT P6SM SCT070
     FM261300 03006KT P6SM SKC=



000
FTUS41 KRNK 251722
TAFROA
TAF
KROA 251722Z 2518/2618 28009KT P6SM SCT070
     FM260100 30004KT P6SM SKC
     FM261300 35007KT P6SM SCT250=



000
FTUS41 KRNK 251722
TAFBLF
TAF
KBLF 251722Z 2518/2618 31009KT P6SM SCT030
     FM260100 26004KT P6SM SKC
     FM261300 31007KT P6SM SCT250=



000
FTUS41 KRNK 251722
TAFLYH
TAF
KLYH 251722Z 2518/2618 09007KT P6SM SCT070
     FM260100 33005KT P6SM SKC
     FM261300 04006KT P6SM SCT250=



000
FTUS41 KRNK 251722
TAFLYH
TAF
KLYH 251722Z 2518/2618 09007KT P6SM SCT070
     FM260100 33005KT P6SM SKC
     FM261300 04006KT P6SM SCT250=



000
FTUS41 KRNK 251722
TAFROA
TAF
KROA 251722Z 2518/2618 28009KT P6SM SCT070
     FM260100 30004KT P6SM SKC
     FM261300 35007KT P6SM SCT250=



000
FTUS41 KRNK 251722
TAFDAN
TAF
KDAN 251722Z 2518/2618 35005KT P6SM SCT070
     FM261300 03006KT P6SM SKC=



000
FTUS41 KRNK 251722
TAFLWB
TAF
KLWB 251722Z 2518/2618 32007KT P6SM SCT035
     FM260100 30004KT P6SM SKC
     FM260900 30002KT 4SM BR SCT020
      TEMPO 2610/2612 1/4SM FG BKN002
     FM261300 32003KT P6SM SCT035=



000
FTUS41 KRNK 251722
TAFBLF
TAF
KBLF 251722Z 2518/2618 31009KT P6SM SCT030
     FM260100 26004KT P6SM SKC
     FM261300 31007KT P6SM SCT250=



000
FTUS41 KRNK 251722
TAFROA
TAF
KROA 251722Z 2518/2618 28009KT P6SM SCT070
     FM260100 30004KT P6SM SKC
     FM261300 35007KT P6SM SCT250=



000
FTUS41 KRNK 251722
TAFLWB
TAF
KLWB 251722Z 2518/2618 32007KT P6SM SCT035
     FM260100 30004KT P6SM SKC
     FM260900 30002KT 4SM BR SCT020
      TEMPO 2610/2612 1/4SM FG BKN002
     FM261300 32003KT P6SM SCT035=



000
FTUS41 KRNK 251722
TAFBLF
TAF
KBLF 251722Z 2518/2618 31009KT P6SM SCT030
     FM260100 26004KT P6SM SKC
     FM261300 31007KT P6SM SCT250=



000
FTUS41 KRNK 251722
TAFLWB
TAF
KLWB 251722Z 2518/2618 32007KT P6SM SCT035
     FM260100 30004KT P6SM SKC
     FM260900 30002KT 4SM BR SCT020
      TEMPO 2610/2612 1/4SM FG BKN002
     FM261300 32003KT P6SM SCT035=



000
FTUS41 KRNK 251722
TAFDAN
TAF
KDAN 251722Z 2518/2618 35005KT P6SM SCT070
     FM261300 03006KT P6SM SKC=



000
FTUS41 KRNK 251722
TAFLYH
TAF
KLYH 251722Z 2518/2618 09007KT P6SM SCT070
     FM260100 33005KT P6SM SKC
     FM261300 04006KT P6SM SCT250=



000
FTUS41 KRNK 251722
TAFROA
TAF
KROA 251722Z 2518/2618 28009KT P6SM SCT070
     FM260100 30004KT P6SM SKC
     FM261300 35007KT P6SM SCT250=



000
FTUS41 KRNK 251722
TAFDAN
TAF
KDAN 251722Z 2518/2618 35005KT P6SM SCT070
     FM261300 03006KT P6SM SKC=



000
FTUS41 KRNK 251722
TAFLYH
TAF
KLYH 251722Z 2518/2618 09007KT P6SM SCT070
     FM260100 33005KT P6SM SKC
     FM261300 04006KT P6SM SCT250=



000
FTUS41 KRNK 251722
TAFBLF
TAF
KBLF 251722Z 2518/2618 31009KT P6SM SCT030
     FM260100 26004KT P6SM SKC
     FM261300 31007KT P6SM SCT250=



000
FTUS41 KRNK 251208 AAA
TAFLWB
TAF AMD
KLWB 251208Z 2512/2612 30004KT P6SM SKC
      TEMPO 2512/2513 2SM BR BKN001
     FM261000 30002KT 4SM BR SKC=



000
FTUS41 KRNK 251208 AAA
TAFLWB
TAF AMD
KLWB 251208Z 2512/2612 30004KT P6SM SKC
      TEMPO 2512/2513 2SM BR BKN001
     FM261000 30002KT 4SM BR SKC=



000
FTUS41 KRNK 251208 AAA
TAFLWB
TAF AMD
KLWB 251208Z 2512/2612 30004KT P6SM SKC
      TEMPO 2512/2513 2SM BR BKN001
     FM261000 30002KT 4SM BR SKC=



000
FTUS41 KRNK 251208 AAA
TAFLWB
TAF AMD
KLWB 251208Z 2512/2612 30004KT P6SM SKC
      TEMPO 2512/2513 2SM BR BKN001
     FM261000 30002KT 4SM BR SKC=



000
FTUS41 KRNK 251120
TAFROA
TAF
KROA 251120Z 2512/2612 30004KT P6SM SKC=



000
FTUS41 KRNK 251120
TAFDAN
TAF
KDAN 251120Z 2512/2612 35005KT P6SM SCT070=



000
FTUS41 KRNK 251120
TAFDAN
TAF
KDAN 251120Z 2512/2612 35005KT P6SM SCT070=



000
FTUS41 KRNK 251120
TAFLWB
TAF
KLWB 251120Z 2512/2612 30004KT P6SM SKC
     FM261000 30002KT 4SM BR SKC=



000
FTUS41 KRNK 251120
TAFBLF
TAF
KBLF 251120Z 2512/2612 26004KT P6SM SKC=



000
FTUS41 KRNK 251120
TAFLYH
TAF
KLYH 251120Z 2512/2612 30005KT P6SM SKC=



000
FTUS41 KRNK 251120
TAFLWB
TAF
KLWB 251120Z 2512/2612 30004KT P6SM SKC
     FM261000 30002KT 4SM BR SKC=



000
FTUS41 KRNK 251120
TAFROA
TAF
KROA 251120Z 2512/2612 30004KT P6SM SKC=



000
FTUS41 KRNK 251120
TAFDAN
TAF
KDAN 251120Z 2512/2612 35005KT P6SM SCT070=



000
FTUS41 KRNK 251120
TAFDAN
TAF
KDAN 251120Z 2512/2612 35005KT P6SM SCT070=



000
FTUS41 KRNK 251120
TAFBLF
TAF
KBLF 251120Z 2512/2612 26004KT P6SM SKC=



000
FTUS41 KRNK 251120
TAFLYH
TAF
KLYH 251120Z 2512/2612 30005KT P6SM SKC=



000
FTUS41 KRNK 250520
TAFLWB
TAF
KLWB 250520Z 2506/2606 00000KT P6SM FEW060
      TEMPO 2510/2512 3SM BR SKC
     FM251400 28006KT P6SM SKC=



000
FTUS41 KRNK 250520
TAFBLF
TAF
KBLF 250520Z 2506/2606 29005KT P6SM FEW050
     FM251400 28008KT P6SM SKC=



000
FTUS41 KRNK 250520
TAFROA
TAF
KROA 250520Z 2506/2606 33008KT P6SM SKC
     FM251600 29008KT P6SM SKC=



000
FTUS41 KRNK 250520
TAFLYH
TAF
KLYH 250520Z 2506/2606 33003KT P6SM FEW060
     FM251600 29004KT P6SM SKC=



000
FTUS41 KRNK 250520
TAFLYH
TAF
KLYH 250520Z 2506/2606 33003KT P6SM FEW060
     FM251600 29004KT P6SM SKC=



000
FTUS41 KRNK 250520
TAFBLF
TAF
KBLF 250520Z 2506/2606 29005KT P6SM FEW050
     FM251400 28008KT P6SM SKC=



000
FTUS41 KRNK 250520
TAFDAN
TAF
KDAN 250520Z 2506/2606 33004KT P6SM BKN060
     FM251500 35006KT P6SM SCT060=



000
FTUS41 KRNK 250520
TAFLWB
TAF
KLWB 250520Z 2506/2606 00000KT P6SM FEW060
      TEMPO 2510/2512 3SM BR SKC
     FM251400 28006KT P6SM SKC=



000
FTUS41 KRNK 250520
TAFROA
TAF
KROA 250520Z 2506/2606 33008KT P6SM SKC
     FM251600 29008KT P6SM SKC=



000
FTUS41 KRNK 250520
TAFBLF
TAF
KBLF 250520Z 2506/2606 29005KT P6SM FEW050
     FM251400 28008KT P6SM SKC=



000
FTUS41 KRNK 250520
TAFLYH
TAF
KLYH 250520Z 2506/2606 33003KT P6SM FEW060
     FM251600 29004KT P6SM SKC=



000
FTUS41 KRNK 250520
TAFDAN
TAF
KDAN 250520Z 2506/2606 33004KT P6SM BKN060
     FM251500 35006KT P6SM SCT060=



000
FTUS41 KRNK 250520
TAFDAN
TAF
KDAN 250520Z 2506/2606 33004KT P6SM BKN060
     FM251500 35006KT P6SM SCT060=



000
FTUS41 KRNK 250520
TAFLWB
TAF
KLWB 250520Z 2506/2606 00000KT P6SM FEW060
      TEMPO 2510/2512 3SM BR SKC
     FM251400 28006KT P6SM SKC=



000
FTUS41 KRNK 250520
TAFROA
TAF
KROA 250520Z 2506/2606 33008KT P6SM SKC
     FM251600 29008KT P6SM SKC=



000
FTUS41 KRNK 250520
TAFLYH
TAF
KLYH 250520Z 2506/2606 33003KT P6SM FEW060
     FM251600 29004KT P6SM SKC=



000
FTUS41 KRNK 242329
TAFLWB
TAF
KLWB 242329Z 2500/2524 00000KT P6SM SKC
     FM251000 00000KT 3SM BR SKC
     FM251400 28006KT P6SM SKC=



000
FTUS41 KRNK 242329
TAFLYH
TAF
KLYH 242329Z 2500/2524 28004KT P6SM SCT060 SCT250
     FM250100 VRB03KT P6SM SCT250
     FM251400 29004KT P6SM SKC=



000
FTUS41 KRNK 242329
TAFLWB
TAF
KLWB 242329Z 2500/2524 00000KT P6SM SKC
     FM251000 00000KT 3SM BR SKC
     FM251400 28006KT P6SM SKC=



000
FTUS41 KRNK 242329
TAFLYH
TAF
KLYH 242329Z 2500/2524 28004KT P6SM SCT060 SCT250
     FM250100 VRB03KT P6SM SCT250
     FM251400 29004KT P6SM SKC=



000
FTUS41 KRNK 242329
TAFDAN
TAF
KDAN 242329Z 2500/2524 VRB03KT P6SM VCSH SCT060 BKN250
     FM250130 VRB03KT P6SM SCT250
     FM251400 35006KT P6SM SKC=



000
FTUS41 KRNK 242329
TAFBLF
TAF
KBLF 242329Z 2500/2524 29006KT P6SM SKC
     FM251400 28008KT P6SM FEW050=



000
FTUS41 KRNK 242329
TAFLYH
TAF
KLYH 242329Z 2500/2524 28004KT P6SM SCT060 SCT250
     FM250100 VRB03KT P6SM SCT250
     FM251400 29004KT P6SM SKC=



000
FTUS41 KRNK 242329
TAFDAN
TAF
KDAN 242329Z 2500/2524 VRB03KT P6SM VCSH SCT060 BKN250
     FM250130 VRB03KT P6SM SCT250
     FM251400 35006KT P6SM SKC=



000
FTUS41 KRNK 242329
TAFBLF
TAF
KBLF 242329Z 2500/2524 29006KT P6SM SKC
     FM251400 28008KT P6SM FEW050=



000
FTUS41 KRNK 242329
TAFBLF
TAF
KBLF 242329Z 2500/2524 29006KT P6SM SKC
     FM251400 28008KT P6SM FEW050=



000
FTUS41 KRNK 242329
TAFLWB
TAF
KLWB 242329Z 2500/2524 00000KT P6SM SKC
     FM251000 00000KT 3SM BR SKC
     FM251400 28006KT P6SM SKC=



000
FTUS41 KRNK 242329
TAFLWB
TAF
KLWB 242329Z 2500/2524 00000KT P6SM SKC
     FM251000 00000KT 3SM BR SKC
     FM251400 28006KT P6SM SKC=



000
FTUS41 KRNK 242329
TAFDAN
TAF
KDAN 242329Z 2500/2524 VRB03KT P6SM VCSH SCT060 BKN250
     FM250130 VRB03KT P6SM SCT250
     FM251400 35006KT P6SM SKC=



000
FTUS41 KRNK 242329
TAFROA
TAF
KROA 242329Z 2500/2524 29006KT P6SM SCT250
     FM251400 29008KT P6SM SKC=



000
FTUS41 KRNK 242329
TAFDAN
TAF
KDAN 242329Z 2500/2524 VRB03KT P6SM VCSH SCT060 BKN250
     FM250130 VRB03KT P6SM SCT250
     FM251400 35006KT P6SM SKC=



000
FTUS41 KRNK 242329
TAFBLF
TAF
KBLF 242329Z 2500/2524 29006KT P6SM SKC
     FM251400 28008KT P6SM FEW050=



000
FTUS41 KRNK 242329
TAFROA
TAF
KROA 242329Z 2500/2524 29006KT P6SM SCT250
     FM251400 29008KT P6SM SKC=



000
FTUS41 KRNK 242329
TAFROA
TAF
KROA 242329Z 2500/2524 29006KT P6SM SCT250
     FM251400 29008KT P6SM SKC=



000
FTUS41 KRNK 242329
TAFROA
TAF
KROA 242329Z 2500/2524 29006KT P6SM SCT250
     FM251400 29008KT P6SM SKC=



000
FTUS41 KRNK 242329
TAFLYH
TAF
KLYH 242329Z 2500/2524 28004KT P6SM SCT060 SCT250
     FM250100 VRB03KT P6SM SCT250
     FM251400 29004KT P6SM SKC=



    US Dept of Commerce
    National Oceanic and Atmospheric Administration
    National Weather Service
    1325 East West Highway
    Silver Spring, MD 20910
    Page Author: NWS Internet Services Team
Disclaimer
Information Quality
Credits
Glossary
Privacy Policy
Freedom of Information Act (FOIA)
About Us
Career Opportunities